Terminal Aerodrome Forecast
Issued by NWS

Home | Current Version | Previous Version | Text Only | Print | Product List | Glossary On
Versions: 1 2 3 4 5 6 7 8 9 10 11 12
000
FTUS42 KMLB 230547
TAFFPR
TAF
KFPR 230547Z 2306/2406 13010KT P6SM FEW025 BKN035 BKN250
     FM231400 14011KT P6SM SCT022 OVC250
     FM231800 14012G18KT P6SM VCSH SCT025 BKN050 OVC200
     FM240000 17007KT P6SM VCSH SCT040 BKN100=

USA.gov is the U.S. government's official web portal to all federal, state and local government web resources and services.